Overview Statistics Trail Chart Weather Telemetry Raw packets
 

This is the latest recevied weather packets stored in our database for station/object I8ZSE-10. If no packets are shown the sender has not sent any weather packets the latest 10 day(s).

<< 29 30 31 32 33 34 35 >>
Time Temp. Humidity Pressure Rain* Wind** Luminosity Snow
1788207930 26.67° C 60% - 0 mm - - -
1788207330 26.11° C 62% - 0 mm - - -
1788206730 26.11° C 62% - 0 mm - - -
1788206130 26.11° C 62% - 0 mm - - -
1788205530 26.11° C 63% - 0 mm - - -
1788204930 26.11° C 63% - 0 mm - - -
1788204330 26.67° C 61% - 0 mm - - -
1788203730 26.67° C 63% - 0 mm - - -
1788203130 26.67° C 63% - 0 mm - - -
1788202530 27.22° C 63% - 0 mm - - -
1788201930 27.22° C 63% - 0 mm - - -
1788201330 27.22° C 63% - 0 mm - - -
1788200730 27.22° C 62% - 0 mm - - -
1788200130 27.22° C 62% - 0 mm - - -
1788199530 27.22° C 60% - 0 mm - - -
1788198930 27.78° C 58% - 0 mm - - -
1788198330 27.78° C 58% - 0 mm - - -
1788197730 27.78° C 58% - 0 mm - - -
1788197130 28.89° C 54% - 0 mm - - -
1788196530 28.89° C 53% - 0 mm - - -
1788195930 29.44° C 50% - 0 mm - - -
1788195330 29.44° C 50% - 0 mm - - -
1788194730 29.44° C 50% - 0 mm - - -
1788194130 30° C 49% - 0 mm - - -
1788193530 30.56° C 47% - 0 mm - - -

* Rain latest hour (hover to see other rain measurements)
** Current wind speed in m/s (hover to see current wind gust speed)